createdAt,value
2022-10-20T00:03:57.405Z,101240.81
2022-10-20T00:09:00.980Z,101232.84
2022-10-20T00:14:03.214Z,101230.56
2022-10-20T00:19:04.973Z,101234.28
2022-10-20T00:24:06.538Z,101232.34
2022-10-20T00:29:08.199Z,101215.72
2022-10-20T00:34:10.147Z,101217.03
2022-10-20T00:39:11.625Z,101217.78
2022-10-20T00:44:49.848Z,101206.19
2022-10-20T00:49:51.591Z,101214.47
2022-10-20T00:54:53.152Z,101202.47
2022-10-20T00:59:54.654Z,101194.88
2022-10-20T01:04:56.143Z,101195.44
2022-10-20T01:09:57.888Z,101191.00
2022-10-20T01:15:14.786Z,101180.53
2022-10-20T01:20:38.009Z,101170.84
2022-10-20T01:26:18.855Z,101165.47
2022-10-20T01:31:38.542Z,101164.16
2022-10-20T01:36:47.738Z,101158.06
2022-10-20T01:42:04.767Z,101139.69
2022-10-20T01:47:07.520Z,101136.31
2022-10-20T01:52:11.375Z,101127.00
2022-10-20T01:57:28.233Z,101115.19
2022-10-20T02:02:49.336Z,101111.00
2022-10-20T02:07:50.928Z,101105.47
2022-10-20T02:12:56.875Z,101085.81
2022-10-20T02:18:04.186Z,101066.44
2022-10-20T02:23:06.564Z,101058.09
2022-10-20T02:28:10.856Z,101041.97
2022-10-20T02:33:12.873Z,101036.72
2022-10-20T02:38:14.443Z,101024.81
2022-10-20T02:43:16.074Z,101011.41
2022-10-20T02:48:17.627Z,101018.88
2022-10-20T02:53:19.140Z,101006.06
2022-10-20T02:58:20.645Z,101013.84
2022-10-20T03:03:22.174Z,101007.22
2022-10-20T03:08:23.678Z,101000.00
2022-10-20T03:13:25.234Z,101002.13
2022-10-20T03:18:26.788Z,100993.72
2022-10-20T03:23:28.278Z,100993.28
2022-10-20T03:28:29.784Z,100992.91
2022-10-20T03:33:31.284Z,100989.91
2022-10-20T03:38:32.826Z,100987.81
2022-10-20T03:43:34.347Z,100985.72
2022-10-20T03:48:36.798Z,100992.09
2022-10-20T03:53:38.305Z,100990.16
2022-10-20T03:58:39.850Z,100994.59
2022-10-20T04:03:41.782Z,100986.75
2022-10-20T04:08:43.380Z,100988.72
2022-10-20T04:13:44.887Z,100983.84
2022-10-20T04:18:46.363Z,100970.84
2022-10-20T04:23:48.008Z,100965.72
2022-10-20T04:28:49.583Z,100947.53
2022-10-20T04:33:51.109Z,100954.81
2022-10-20T04:38:52.613Z,100948.56
2022-10-20T04:43:54.134Z,100935.69
2022-10-20T04:48:55.635Z,100932.31
2022-10-20T04:53:57.185Z,100934.75
2022-10-20T04:58:59.228Z,100924.84
2022-10-20T05:04:00.882Z,100908.56
2022-10-20T05:09:04.310Z,100902.63
2022-10-20T05:14:05.981Z,100902.44
2022-10-20T05:19:07.506Z,100897.88
2022-10-20T05:24:16.729Z,100890.50
2022-10-20T05:29:21.533Z,100900.28
2022-10-20T05:34:23.059Z,100892.75
2022-10-20T05:39:24.552Z,100887.09
2022-10-20T05:44:26.059Z,100876.13
2022-10-20T05:49:27.635Z,100875.78
2022-10-20T05:54:29.133Z,100876.97
2022-10-20T05:59:32.282Z,100882.28
2022-10-20T06:04:33.818Z,100884.59
2022-10-20T06:09:36.069Z,100889.88
2022-10-20T06:14:37.590Z,100896.44
2022-10-20T06:19:39.085Z,100885.31
2022-10-20T06:24:40.588Z,100887.50
2022-10-20T06:29:42.074Z,100887.22
2022-10-20T06:34:43.696Z,100892.00
2022-10-20T06:39:45.176Z,100893.19
2022-10-20T06:44:46.659Z,100904.31
2022-10-20T06:49:48.771Z,100895.47
2022-10-20T06:54:50.267Z,100903.44
2022-10-20T06:59:51.768Z,100910.41
2022-10-20T07:04:53.239Z,100919.13
2022-10-20T07:09:54.717Z,100913.41
2022-10-20T07:14:56.234Z,100908.25
2022-10-20T07:19:57.924Z,100906.63
2022-10-20T07:25:02.047Z,100905.69
2022-10-20T07:30:04.198Z,100902.09
2022-10-20T07:35:06.186Z,100897.03
2022-10-20T07:40:08.156Z,100887.66
2022-10-20T07:45:09.799Z,100895.84
2022-10-20T07:50:12.912Z,100889.06
2022-10-20T07:55:36.629Z,100884.59
2022-10-20T08:00:35.960Z,100875.72
2022-10-20T08:05:37.538Z,100879.69
2022-10-20T08:10:39.034Z,100870.97
2022-10-20T08:21:09.659Z,100859.41
2022-10-20T08:26:12.437Z,100849.53
2022-10-20T08:31:14.029Z,100837.41
2022-10-20T08:36:15.672Z,100832.91
2022-10-20T08:41:21.292Z,100838.69
2022-10-20T08:46:30.576Z,100825.72
2022-10-20T08:51:34.314Z,100823.72
2022-10-20T08:56:35.830Z,100817.34
2022-10-20T09:01:37.622Z,100804.78
2022-10-20T09:06:41.952Z,100800.84
2022-10-20T09:11:44.390Z,100789.53
2022-10-20T09:16:59.708Z,100800.38
2022-10-20T09:22:06.053Z,100797.56
2022-10-20T09:27:23.814Z,100818.28
2022-10-20T09:32:50.902Z,100803.78
2022-10-20T09:37:52.398Z,100793.59
2022-10-20T09:42:56.806Z,100796.66
2022-10-20T09:48:18.284Z,100778.75
2022-10-20T09:53:22.231Z,100794.81
2022-10-20T09:58:29.490Z,100778.56
2022-10-20T10:03:45.098Z,100783.88
2022-10-20T10:08:47.389Z,100782.03
2022-10-20T10:13:51.027Z,100776.78
2022-10-20T10:19:01.739Z,100758.78
2022-10-20T10:24:04.453Z,100782.66
2022-10-20T10:29:06.014Z,100752.66
2022-10-20T10:34:13.243Z,100749.84
2022-10-20T10:39:15.922Z,100738.19
2022-10-20T10:44:43.696Z,100730.81
2022-10-20T10:49:54.409Z,100734.28
2022-10-20T10:55:30.528Z,100721.53
2022-10-20T11:01:07.184Z,100709.63
2022-10-20T11:06:20.024Z,100702.28
2022-10-20T11:11:30.807Z,100708.03
2022-10-20T11:16:51.923Z,100698.66
2022-10-20T11:21:59.167Z,100691.97
2022-10-20T11:27:04.501Z,100696.69
2022-10-20T11:32:16.431Z,100688.88
2022-10-20T11:37:17.810Z,100667.19
2022-10-20T11:42:32.446Z,100667.75
2022-10-20T11:47:39.179Z,100660.72
2022-10-20T11:53:13.458Z,100662.56
2022-10-20T11:58:32.586Z,100679.16
2022-10-20T12:03:41.712Z,100640.50
2022-10-20T12:08:52.599Z,100639.59
2022-10-20T12:14:07.184Z,100656.41
2022-10-20T12:19:21.779Z,100641.97
2022-10-20T12:24:37.858Z,100644.88
2022-10-20T12:29:42.054Z,100628.88
2022-10-20T12:34:43.609Z,100634.78
2022-10-20T12:39:46.013Z,100605.91
2022-10-20T12:44:47.714Z,100606.75
2022-10-20T12:49:56.700Z,100601.88
2022-10-20T12:55:19.399Z,100583.91
2022-10-20T13:00:23.613Z,100582.91
2022-10-20T13:05:27.516Z,100585.41
2022-10-20T13:10:31.874Z,100587.09
2022-10-20T13:15:37.007Z,100582.25
2022-10-20T13:20:59.473Z,100593.31
2022-10-20T13:26:30.376Z,100581.78
2022-10-20T13:31:34.309Z,100566.63
2022-10-20T13:36:57.038Z,100560.06
2022-10-20T13:42:17.087Z,100562.09
2022-10-20T13:47:34.942Z,100544.63
2022-10-20T13:52:41.286Z,100537.34
2022-10-20T13:57:55.540Z,100543.28
2022-10-20T14:03:14.478Z,100545.97
2022-10-20T14:08:21.196Z,100540.22
2022-10-20T14:13:27.359Z,100531.69
2022-10-20T14:18:32.613Z,100526.44
2022-10-20T14:23:38.601Z,100538.06
2022-10-20T14:28:42.005Z,100525.94
2022-10-20T14:33:45.180Z,100526.44
2022-10-20T14:38:48.650Z,100519.72
2022-10-20T14:43:53.081Z,100511.16
2022-10-20T14:48:54.634Z,100504.75
2022-10-20T14:54:28.111Z,100500.19
2022-10-20T14:59:32.921Z,100497.00
2022-10-20T15:04:36.393Z,100485.69
2022-10-20T15:09:41.442Z,100493.41
2022-10-20T15:14:46.790Z,100483.97
2022-10-20T15:19:48.324Z,100485.28
2022-10-20T15:24:49.961Z,100487.00
2022-10-20T15:29:51.791Z,100476.53
2022-10-20T15:34:53.267Z,100470.44
2022-10-20T15:39:54.771Z,100466.94
2022-10-20T15:44:56.242Z,100433.50
2022-10-20T15:49:57.912Z,100441.50
2022-10-20T15:54:59.449Z,100453.44
2022-10-20T16:00:00.993Z,100440.31
2022-10-20T16:05:02.562Z,100436.41
2022-10-20T16:10:06.095Z,100423.66
2022-10-20T16:15:08.886Z,100416.59
2022-10-20T16:20:10.831Z,100429.50
2022-10-20T16:25:12.389Z,100435.50
2022-10-20T16:30:14.063Z,100445.88
2022-10-20T16:35:15.659Z,100432.94
2022-10-20T16:40:17.288Z,100443.00
2022-10-20T16:45:18.830Z,100432.28
2022-10-20T16:50:20.413Z,100421.84
2022-10-20T16:55:21.958Z,100428.41
2022-10-20T17:00:23.464Z,100417.13
2022-10-20T17:05:26.584Z,100420.31
2022-10-20T17:10:28.378Z,100393.44
2022-10-20T17:15:29.932Z,100402.69
2022-10-20T17:20:31.415Z,100404.69
2022-10-20T17:25:32.927Z,100405.38
2022-10-20T17:30:34.477Z,100398.41
2022-10-20T17:35:36.105Z,100404.81
2022-10-20T17:40:38.263Z,100406.00
2022-10-20T17:45:39.788Z,100398.09
2022-10-20T17:50:41.287Z,100398.31
2022-10-20T17:55:42.797Z,100407.31
2022-10-20T18:00:56.216Z,100392.88
2022-10-20T18:05:58.501Z,100375.25
2022-10-20T18:10:59.999Z,100376.09
2022-10-20T18:16:04.927Z,100362.34
2022-10-20T18:21:08.425Z,100361.69
2022-10-20T18:26:12.767Z,100350.97
2022-10-20T18:31:21.035Z,100342.06
2022-10-20T18:36:23.135Z,100344.56
2022-10-20T18:41:26.792Z,100332.16
2022-10-20T18:46:31.551Z,100315.88
2022-10-20T18:51:33.560Z,100303.28
2022-10-20T18:56:35.762Z,100299.34
2022-10-20T19:01:38.698Z,100310.22
2022-10-20T19:06:43.070Z,100301.97
2022-10-20T19:11:45.686Z,100302.63
2022-10-20T19:16:48.636Z,100297.63
2022-10-20T19:21:50.131Z,100303.66
2022-10-20T19:27:24.540Z,100278.84
2022-10-20T19:32:17.297Z,100282.00
2022-10-20T19:37:18.810Z,100273.78
2022-10-20T19:42:20.352Z,100266.09
2022-10-20T19:47:21.986Z,100270.09
2022-10-20T19:52:23.497Z,100262.88
2022-10-20T19:57:25.137Z,100253.31
2022-10-20T20:02:26.660Z,100259.03
2022-10-20T20:07:28.185Z,100276.94
2022-10-20T20:12:29.773Z,100286.13
2022-10-20T20:17:31.264Z,100285.50
2022-10-20T20:22:32.751Z,100283.00
2022-10-20T20:27:34.315Z,100276.94
2022-10-20T20:32:37.129Z,100264.88
2022-10-20T20:37:39.119Z,100254.34
2022-10-20T20:42:40.886Z,100264.22
2022-10-20T20:47:43.174Z,100259.16
2022-10-20T20:52:44.717Z,100252.31
2022-10-20T20:57:46.217Z,100243.09
2022-10-20T21:02:47.755Z,100238.88
2022-10-20T21:07:49.275Z,100250.97
2022-10-20T21:12:50.752Z,100235.91
2022-10-20T21:17:52.268Z,100232.53
2022-10-20T21:22:53.827Z,100278.16
2022-10-20T21:27:55.412Z,100300.63
2022-10-20T21:32:56.960Z,100290.25
2022-10-20T21:37:58.448Z,100306.19
2022-10-20T21:42:59.969Z,100327.16
2022-10-20T21:48:01.563Z,100321.66
2022-10-20T21:53:03.069Z,100325.69
2022-10-20T21:58:04.590Z,100323.53
2022-10-20T22:03:06.091Z,100328.38
2022-10-20T22:08:07.635Z,100328.91
2022-10-20T22:13:09.325Z,100326.91
2022-10-20T22:18:10.818Z,100328.91
2022-10-20T22:23:12.445Z,100321.19
2022-10-20T22:28:13.947Z,100316.38
2022-10-20T22:33:15.467Z,100318.50
2022-10-20T22:38:17.042Z,100310.16
2022-10-20T22:43:18.526Z,100315.53
2022-10-20T22:48:20.173Z,100319.84
2022-10-20T22:53:21.787Z,100311.66
2022-10-20T22:58:23.400Z,100289.50
2022-10-20T23:03:25.002Z,100290.66
2022-10-20T23:08:29.415Z,100286.63
2022-10-20T23:13:33.522Z,100267.50
2022-10-20T23:18:35.054Z,100256.59
2022-10-20T23:23:37.410Z,100250.72
2022-10-20T23:28:38.984Z,100263.47
2022-10-20T23:33:41.809Z,100247.34
2022-10-20T23:38:43.636Z,100254.09
2022-10-20T23:43:45.200Z,100263.31
2022-10-20T23:48:46.808Z,100271.72
2022-10-20T23:53:48.307Z,100267.69
2022-10-20T23:58:49.893Z,100265.81
